Time;durP1;ratioP1;P1;durP2;ratioP2;P2;SDS_P1;SDS_P2;PMS_P1;PMS_P2;Temp;Humidity;BMP_temperature;BMP_pressure;BME280_temperature;BME280_humidity;BME280_pressure;Samples;Min_cycle;Max_cycle;Signal;HPM_P1;HPM_P2
2021/09/05 00:00:07;;;;;;;14.98;11.40;;;;;;;17.29;79.30;100627.81;5014103;28;20052;-80
2021/09/05 00:02:34;;;;;;;15.90;11.82;;;;;;;17.27;79.44;100624.38;5026864;28;20076;-80
2021/09/05 00:05:00;;;;;;;15.30;11.57;;;;;;;17.30;79.35;100630.38;5017287;28;20050;-81
2021/09/05 00:07:28;;;;;;;17.42;12.27;;;;;;;17.26;79.50;100628.03;4997680;28;20054;-80
2021/09/05 00:09:54;;;;;;;14.80;11.32;;;;;;;17.23;79.43;100622.88;5016440;28;20057;-80
2021/09/05 00:12:22;;;;;;;16.17;12.02;;;;;;;17.23;79.60;100626.41;5018507;28;20068;-80
2021/09/05 00:14:50;;;;;;;17.45;12.20;;;;;;;17.19;79.94;100624.91;5015750;28;20049;-80
2021/09/05 00:17:17;;;;;;;14.90;11.77;;;;;;;17.16;79.63;100617.94;5015363;28;20050;-81
2021/09/05 00:19:43;;;;;;;17.48;11.27;;;;;;;17.16;79.90;100617.94;4996032;28;20050;-81
2021/09/05 00:22:11;;;;;;;16.05;11.88;;;;;;;17.14;79.95;100622.59;5012425;28;20093;-80
2021/09/05 00:24:37;;;;;;;16.60;11.98;;;;;;;17.07;79.98;100613.25;5000833;28;20045;-81
2021/09/05 00:27:04;;;;;;;15.70;12.38;;;;;;;17.05;80.10;100615.19;5018932;28;20042;-80
2021/09/05 00:29:32;;;;;;;17.00;12.30;;;;;;;17.07;80.30;100610.59;5024067;28;20073;-80
2021/09/05 00:31:59;;;;;;;17.55;11.48;;;;;;;17.07;79.77;100623.09;5014372;28;20045;-80
2021/09/05 00:34:26;;;;;;;17.50;12.27;;;;;;;17.07;79.93;100613.25;5009666;28;20221;-80
2021/09/05 00:36:52;;;;;;;14.85;11.90;;;;;;;17.05;79.93;100625.88;5018921;28;20048;-81
2021/09/05 00:39:19;;;;;;;16.50;12.45;;;;;;;17.01;80.18;100613.69;5021878;28;20105;-81
2021/09/05 00:41:48;;;;;;;17.23;12.90;;;;;;;17.01;79.87;100623.53;5029441;28;20042;-80
2021/09/05 00:44:15;;;;;;;18.25;13.63;;;;;;;16.95;79.96;100623.97;5023169;28;20038;-81
2021/09/05 00:46:43;;;;;;;19.38;12.85;;;;;;;16.84;80.26;100619.38;5019945;28;20056;-81
2021/09/05 00:49:11;;;;;;;18.42;12.75;;;;;;;16.81;80.47;100622.25;5019741;28;20042;-80
2021/09/05 00:51:42;;;;;;;18.83;13.27;;;;;;;16.78;80.71;100625.16;5020168;28;20054;-80
2021/09/05 00:54:12;;;;;;;18.85;12.93;;;;;;;16.77;80.79;100626.09;5029342;28;20045;-80
2021/09/05 00:56:42;;;;;;;23.10;12.70;;;;;;;16.74;80.76;100626.31;5025736;28;20303;-79
2021/09/05 00:59:21;;;;;;;19.23;13.48;;;;;;;16.71;81.07;100632.72;5030981;28;20056;-80
2021/09/05 01:01:48;;;;;;;20.73;13.45;;;;;;;16.72;80.79;100628.22;5029429;28;20115;-79
2021/09/05 01:04:16;;;;;;;17.35;12.95;;;;;;;16.68;80.95;100637.44;5037768;28;20038;-79
2021/09/05 01:06:43;;;;;;;19.42;12.93;;;;;;;16.64;81.03;100639.47;5038006;28;20093;-80
2021/09/05 01:09:10;;;;;;;19.98;12.45;;;;;;;16.68;80.83;100642.78;5012266;28;20053;-81
2021/09/05 01:11:37;;;;;;;17.05;12.70;;;;;;;16.64;81.44;100635.94;5026161;28;20121;-80
2021/09/05 01:14:06;;;;;;;19.15;13.23;;;;;;;16.64;81.40;100635.94;5032169;28;20081;-80
2021/09/05 01:16:36;;;;;;;18.27;13.30;;;;;;;16.63;81.10;100632.41;5035339;28;20057;-80
2021/09/05 01:19:07;;;;;;;20.15;13.65;;;;;;;16.60;80.89;100639.72;5036919;28;20046;-80
2021/09/05 01:21:35;;;;;;;20.90;13.93;;;;;;;16.59;81.40;100635.34;5024558;28;20196;-80
2021/09/05 01:24:03;;;;;;;21.42;13.95;;;;;;;16.55;81.26;100636.50;5017019;28;20060;-80
2021/09/05 01:26:33;;;;;;;20.27;14.05;;;;;;;16.52;81.33;100644.75;5012104;28;20141;-80
2021/09/05 01:29:01;;;;;;;19.00;13.73;;;;;;;16.51;81.55;100632.34;5018047;28;20136;-80
2021/09/05 01:31:48;;;;;;;20.40;13.98;;;;;;;16.46;81.73;100649.56;5011599;28;20813;-81
2021/09/05 01:34:19;;;;;;;21.40;14.45;;;;;;;16.44;81.95;100637.25;4999791;28;20621;-81
2021/09/05 01:36:49;;;;;;;19.45;13.13;;;;;;;16.42;81.87;100649.84;5012520;28;20050;-80
2021/09/05 01:39:17;;;;;;;22.27;14.43;;;;;;;16.37;81.86;100647.47;5022486;28;20049;-80
2021/09/05 01:41:45;;;;;;;19.08;13.20;;;;;;;16.29;82.21;100647.16;5008697;28;20049;-80
2021/09/05 01:44:16;;;;;;;18.35;13.48;;;;;;;16.29;82.48;100646.28;5007479;28;20137;-80
2021/09/05 01:46:43;;;;;;;21.38;14.13;;;;;;;16.27;82.57;100646.38;5021145;28;20128;-80
2021/09/05 01:49:10;;;;;;;22.27;14.13;;;;;;;16.23;82.31;100646.69;5014245;28;20051;-80
2021/09/05 01:51:37;;;;;;;20.33;14.27;;;;;;;16.22;82.53;100655.66;5016480;28;20056;-80
2021/09/05 01:54:03;;;;;;;22.02;14.40;;;;;;;16.18;82.47;100651.50;5023839;28;20042;-79
2021/09/05 01:56:31;;;;;;;24.60;15.40;;;;;;;16.18;82.81;100660.38;5037382;28;20057;-79
2021/09/05 01:58:59;;;;;;;23.50;14.98;;;;;;;16.14;82.85;100664.19;5028434;28;20069;-79
2021/09/05 02:01:30;;;;;;;26.77;15.90;;;;;;;16.11;83.03;100659.03;5017860;28;20050;-79
2021/09/05 02:03:59;;;;;;;22.63;15.02;;;;;;;16.10;83.12;100662.66;5025334;28;20060;-81
2021/09/05 02:06:27;;;;;;;23.40;15.27;;;;;;;16.10;83.21;100668.00;5010428;28;20047;-80
2021/09/05 02:08:54;;;;;;;21.80;14.50;;;;;;;16.10;83.25;100670.69;5001408;28;20406;-81
2021/09/05 02:11:21;;;;;;;21.80;14.82;;;;;;;16.10;83.47;100668.00;5015334;28;20157;-81
2021/09/05 02:13:48;;;;;;;21.05;15.32;;;;;;;16.08;83.32;100672.59;5021494;28;20053;-81
2021/09/05 02:16:17;;;;;;;25.15;15.10;;;;;;;16.03;83.12;100661.38;5018017;28;20060;-80
2021/09/05 02:18:45;;;;;;;23.65;15.05;;;;;;;16.00;83.33;100673.13;5016420;28;20051;-81
2021/09/05 02:21:11;;;;;;;20.85;14.93;;;;;;;15.99;83.68;100678.56;5015756;28;20060;-80
2021/09/05 02:23:38;;;;;;;25.73;15.05;;;;;;;15.95;83.65;100669.88;5003676;28;20046;-80
2021/09/05 02:26:05;;;;;;;24.30;16.42;;;;;;;15.91;84.02;100671.03;5016731;28;20050;-80
2021/09/05 02:28:31;;;;;;;21.65;15.25;;;;;;;15.86;84.18;100670.47;5012702;28;20044;-80
2021/09/05 02:30:58;;;;;;;24.05;15.98;;;;;;;15.88;84.19;100678.41;5005737;28;20141;-81
2021/09/05 02:33:25;;;;;;;22.88;15.10;;;;;;;15.83;84.41;100676.00;5018149;28;20068;-79
2021/09/05 02:35:51;;;;;;;22.83;15.23;;;;;;;15.82;84.23;100676.09;5031831;28;20986;-80
2021/09/05 02:38:18;;;;;;;24.02;16.40;;;;;;;15.78;84.65;100676.28;5031841;28;20110;-79
2021/09/05 02:40:45;;;;;;;25.42;16.45;;;;;;;15.75;84.63;100673.81;5031923;28;20066;-79
2021/09/05 02:43:11;;;;;;;24.98;16.20;;;;;;;15.70;85.08;100675.94;5026809;28;20056;-80
2021/09/05 02:45:38;;;;;;;26.42;16.23;;;;;;;15.68;84.80;100677.00;5015741;28;20061;-81
2021/09/05 02:48:07;;;;;;;25.30;16.67;;;;;;;15.61;85.17;100672.97;5012891;28;20140;-80
2021/09/05 02:50:33;;;;;;;25.35;16.17;;;;;;;15.59;85.40;100678.41;5012177;28;20054;-80
2021/09/05 02:53:00;;;;;;;24.40;16.10;;;;;;;15.56;85.28;100678.63;5006893;28;20092;-80
2021/09/05 02:55:26;;;;;;;25.92;16.50;;;;;;;15.55;85.42;100674.25;5024186;28;20056;-79
2021/09/05 02:57:53;;;;;;;24.08;16.63;;;;;;;15.54;85.47;100677.84;5013078;28;20046;-80
2021/09/05 03:00:20;;;;;;;27.25;16.13;;;;;;;15.53;85.64;100670.78;5025296;28;20094;-80
2021/09/05 03:02:47;;;;;;;24.75;15.85;;;;;;;15.54;85.36;100675.16;5023888;28;20042;-79
2021/09/05 03:05:14;;;;;;;24.42;15.60;;;;;;;15.53;85.49;100678.78;5020887;28;20098;-80
2021/09/05 03:07:41;;;;;;;25.13;16.50;;;;;;;15.53;85.44;100677.94;5029718;28;20088;-80
2021/09/05 03:10:08;;;;;;;23.05;16.20;;;;;;;15.51;85.36;100679.84;5027122;28;20073;-80
2021/09/05 03:12:35;;;;;;;24.15;15.90;;;;;;;15.47;85.44;100673.81;5021951;28;20053;-80
2021/09/05 03:15:02;;;;;;;25.05;16.35;;;;;;;15.46;85.67;100680.13;5019820;28;20057;-81
2021/09/05 03:17:30;;;;;;;26.88;16.02;;;;;;;15.42;85.63;100670.59;5008907;28;20082;-80
2021/09/05 03:19:57;;;;;;;25.50;16.10;;;;;;;15.40;85.81;100670.69;5013609;28;20061;-80
2021/09/05 03:22:24;;;;;;;27.33;17.00;;;;;;;15.40;85.46;100669.84;5015394;28;20056;-80
2021/09/05 03:24:51;;;;;;;25.17;17.00;;;;;;;15.40;85.69;100678.72;5015817;28;20052;-80
2021/09/05 03:27:17;;;;;;;25.60;17.23;;;;;;;15.40;85.69;100677.84;5014246;28;20091;-81
2021/09/05 03:29:45;;;;;;;27.17;17.63;;;;;;;15.39;85.72;100676.13;5014894;28;20073;-80
2021/09/05 03:32:12;;;;;;;26.75;17.33;;;;;;;15.36;85.80;100678.97;5028378;28;20052;-79
2021/09/05 03:34:38;;;;;;;27.10;16.35;;;;;;;15.36;86.12;100677.19;5025089;28;20244;-79
2021/09/05 03:37:05;;;;;;;28.35;17.85;;;;;;;15.36;86.24;100684.31;5031215;28;20110;-80
2021/09/05 03:39:32;;;;;;;27.85;17.23;;;;;;;15.35;86.05;100678.13;5027227;28;20037;-80
2021/09/05 03:42:00;;;;;;;24.13;16.48;;;;;;;15.35;86.03;100686.13;5024201;28;20092;-80
2021/09/05 03:44:26;;;;;;;26.23;17.17;;;;;;;15.35;86.00;100687.94;5026855;28;20109;-80
2021/09/05 03:46:53;;;;;;;26.05;17.00;;;;;;;15.34;86.11;100688.91;5018886;28;20416;-80
2021/09/05 03:49:20;;;;;;;24.95;15.95;;;;;;;15.34;86.38;100683.56;5013725;28;20044;-81
2021/09/05 03:51:47;;;;;;;25.13;16.17;;;;;;;15.35;86.31;100682.59;4995529;28;20065;-80
2021/09/05 03:54:14;;;;;;;25.00;16.63;;;;;;;15.34;85.91;100691.56;5015413;28;20081;-79
2021/09/05 03:56:41;;;;;;;27.23;17.45;;;;;;;15.31;85.87;100692.59;5015756;28;20052;-80
2021/09/05 03:59:08;;;;;;;27.85;17.25;;;;;;;15.31;85.73;100691.75;5017019;28;20041;-80
2021/09/05 04:01:35;;;;;;;27.23;17.23;;;;;;;15.29;85.87;100688.31;5012025;28;20061;-80
2021/09/05 04:04:02;;;;;;;26.80;17.25;;;;;;;15.26;85.82;100693.84;5013136;28;20398;-80
2021/09/05 04:06:30;;;;;;;26.35;17.67;;;;;;;15.23;86.00;100691.38;5014737;28;20064;-80
2021/09/05 04:09:08;;;;;;;26.77;17.23;;;;;;;15.16;86.06;100685.53;5014093;28;20925;-80
2021/09/05 04:11:35;;;;;;;24.48;16.48;;;;;;;15.18;85.73;100696.13;5016964;28;20055;-80
2021/09/05 04:14:02;;;;;;;28.98;16.63;;;;;;;15.17;85.82;100694.41;5012608;28;20049;-80
2021/09/05 04:16:29;;;;;;;28.15;17.73;;;;;;;15.15;85.79;100698.97;5015699;28;20270;-80
2021/09/05 04:18:56;;;;;;;28.27;17.58;;;;;;;15.08;86.04;100694.03;5017613;28;20132;-80
2021/09/05 04:21:23;;;;;;;28.63;17.73;;;;;;;15.03;86.47;100688.09;5013827;28;20045;-80
2021/09/05 04:23:50;;;;;;;28.73;18.67;;;;;;;15.01;86.50;100691.81;5014226;28;20053;-80
2021/09/05 04:26:17;;;;;;;26.17;17.67;;;;;;;14.99;86.63;100694.56;5014868;28;20137;-80
2021/09/05 04:28:44;;;;;;;31.35;18.20;;;;;;;14.98;87.34;100702.66;5002470;28;20529;-80
2021/09/05 04:31:10;;;;;;;31.67;19.10;;;;;;;14.94;87.07;100701.16;5018493;28;20042;-81
2021/09/05 04:33:37;;;;;;;32.45;18.75;;;;;;;14.93;87.15;100704.75;5010742;28;20049;-80
2021/09/05 04:36:04;;;;;;;28.67;17.75;;;;;;;14.87;87.09;100700.66;5027057;28;20170;-79
2021/09/05 04:38:31;;;;;;;30.20;18.20;;;;;;;14.89;87.41;100698.75;5000325;28;20141;-81
2021/09/05 04:40:57;;;;;;;29.73;17.80;;;;;;;14.88;87.33;100702.38;5018913;28;20049;-81
2021/09/05 04:43:24;;;;;;;29.73;18.33;;;;;;;14.88;87.24;100704.16;5008301;28;20045;-81
2021/09/05 04:45:51;;;;;;;27.65;17.83;;;;;;;14.89;87.63;100705.88;5015337;28;20458;-81
2021/09/05 04:48:19;;;;;;;34.00;18.33;;;;;;;14.89;87.59;100712.09;5013317;28;20057;-82
2021/09/05 04:50:46;;;;;;;31.50;18.60;;;;;;;14.94;87.07;100711.81;5018283;28;20109;-81
2021/09/05 04:53:14;;;;;;;28.73;18.10;;;;;;;14.92;86.87;100717.25;5014688;28;20440;-81
2021/09/05 04:55:42;;;;;;;31.10;18.00;;;;;;;14.89;87.07;100717.41;5027539;28;20053;-80
2021/09/05 04:58:09;;;;;;;28.13;17.83;;;;;;;14.89;87.22;100736.09;5037255;28;20105;-80
2021/09/05 05:00:36;;;;;;;27.98;17.95;;;;;;;14.86;87.34;100736.25;4997472;28;20136;-81
2021/09/05 05:03:03;;;;;;;27.35;17.23;;;;;;;14.87;86.90;100724.66;5014279;28;20149;-81
2021/09/05 05:05:30;;;;;;;30.77;17.88;;;;;;;14.89;87.18;100733.41;5015290;28;20058;-81
2021/09/05 05:07:56;;;;;;;28.40;17.83;;;;;;;14.91;87.30;100741.31;5013586;28;20050;-80
2021/09/05 05:10:24;;;;;;;29.55;18.45;;;;;;;14.93;87.22;100739.44;5016705;28;20060;-81
2021/09/05 05:12:51;;;;;;;27.05;18.00;;;;;;;14.93;87.05;100731.44;4999034;28;20073;-81
2021/09/05 05:15:17;;;;;;;30.02;17.83;;;;;;;14.96;86.67;100742.75;5017286;28;20049;-81
2021/09/05 05:17:44;;;;;;;26.17;16.40;;;;;;;14.98;86.41;100748.00;5011577;28;20042;-80
2021/09/05 05:20:11;;;;;;;27.88;17.45;;;;;;;15.01;87.02;100742.47;5010672;28;20050;-81
2021/09/05 05:22:39;;;;;;;28.08;18.42;;;;;;;15.03;86.69;100752.13;5005257;28;20042;-81
2021/09/05 05:25:07;;;;;;;29.73;17.40;;;;;;;15.02;86.17;100750.41;5008032;28;20046;-80
2021/09/05 05:27:34;;;;;;;28.15;18.65;;;;;;;15.00;86.14;100746.97;5011672;28;20626;-81
2021/09/05 05:30:01;;;;;;;29.00;18.27;;;;;;;14.98;86.18;100750.66;4998423;28;20115;-81
2021/09/05 05:32:28;;;;;;;27.75;18.55;;;;;;;14.99;86.01;100758.56;5014720;28;20402;-81
2021/09/05 05:34:55;;;;;;;27.95;18.17;;;;;;;14.98;86.00;100756.84;5016373;28;20060;-81
2021/09/05 05:37:22;;;;;;;30.23;18.33;;;;;;;14.99;85.90;100761.25;5018052;28;20420;-81
2021/09/05 05:39:48;;;;;;;32.38;17.92;;;;;;;15.03;85.84;100762.78;5018092;28;20045;-81
2021/09/05 05:42:15;;;;;;;28.80;17.58;;;;;;;15.05;85.71;100766.22;5016912;28;20050;-81
2021/09/05 05:44:43;;;;;;;27.55;18.05;;;;;;;15.11;85.49;100772.16;5016629;28;20057;-81
2021/09/05 05:47:09;;;;;;;28.13;18.38;;;;;;;15.12;85.29;100774.69;5014740;28;20046;-81
2021/09/05 05:49:38;;;;;;;29.02;18.50;;;;;;;15.18;85.00;100773.47;5005561;28;20573;-81
2021/09/05 05:52:05;;;;;;;31.83;19.65;;;;;;;15.20;84.96;100769.78;5016045;28;20133;-81
2021/09/05 05:54:32;;;;;;;28.48;18.33;;;;;;;15.24;84.66;100770.47;5008512;28;20061;-81
2021/09/05 05:57:00;;;;;;;27.33;17.13;;;;;;;15.26;84.49;100765.91;5026497;28;20545;-81
2021/09/05 05:59:27;;;;;;;33.55;18.15;;;;;;;15.29;84.55;100771.03;5017497;28;20069;-80
2021/09/05 06:01:55;;;;;;;28.65;17.42;;;;;;;15.34;84.14;100768.94;5009482;28;20040;-80
2021/09/05 06:04:24;;;;;;;29.08;16.95;;;;;;;15.35;83.94;100766.19;5026253;28;20034;-81
2021/09/05 06:06:52;;;;;;;27.25;16.67;;;;;;;15.41;83.80;100775.63;5027074;28;20118;-80
2021/09/05 06:09:20;;;;;;;27.17;17.83;;;;;;;15.44;83.34;100765.59;5022518;28;20054;-81
2021/09/05 06:11:47;;;;;;;27.77;17.45;;;;;;;15.49;82.56;100775.16;5017141;28;20052;-81
2021/09/05 06:14:13;;;;;;;27.23;17.20;;;;;;;15.50;82.42;100775.06;5019829;28;20050;-81
2021/09/05 06:16:40;;;;;;;28.25;17.40;;;;;;;15.53;82.60;100774.03;4998652;28;20053;-80
2021/09/05 06:19:09;;;;;;;29.40;17.88;;;;;;;15.52;82.57;100766.97;5009946;28;20125;-81
2021/09/05 06:21:35;;;;;;;28.00;17.92;;;;;;;15.57;82.04;100780.94;5017688;28;20056;-79
2021/09/05 06:24:02;;;;;;;26.20;17.42;;;;;;;15.61;81.71;100785.09;5016231;28;20154;-80
2021/09/05 06:26:29;;;;;;;25.10;17.35;;;;;;;15.63;81.99;100778.72;5023942;28;20482;-81
2021/09/05 06:28:56;;;;;;;31.00;18.20;;;;;;;15.67;81.42;100777.59;5015450;28;20105;-79
2021/09/05 06:31:22;;;;;;;27.77;17.15;;;;;;;15.70;81.48;100782.75;5035020;28;20065;-80
2021/09/05 06:33:49;;;;;;;26.80;17.00;;;;;;;15.77;81.14;100785.88;5039168;28;20125;-80
2021/09/05 06:36:16;;;;;;;30.13;18.02;;;;;;;15.85;81.00;100783.59;5015410;28;20432;-82
2021/09/05 06:38:42;;;;;;;26.67;17.70;;;;;;;15.94;80.65;100790.16;5016862;28;20049;-82
2021/09/05 06:41:09;;;;;;;26.77;17.10;;;;;;;15.99;80.07;100786.25;5012100;28;20060;-81
2021/09/05 06:43:38;;;;;;;28.67;17.58;;;;;;;16.16;79.56;100795.88;5017532;28;20058;-82
2021/09/05 06:46:05;;;;;;;30.98;17.38;;;;;;;16.34;78.20;100786.69;5012915;28;20050;-81
2021/09/05 06:48:43;;;;;;;24.95;16.92;;;;;;;16.57;77.34;100792.31;5018738;28;20546;-80
2021/09/05 06:51:11;;;;;;;27.88;17.08;;;;;;;16.82;76.25;100792.47;5007384;28;20078;-80
2021/09/05 06:53:42;;;;;;;28.13;17.20;;;;;;;17.05;75.01;100788.25;5029356;28;20113;-79
2021/09/05 06:56:09;;;;;;;;;;;;;;;17.25;74.75;100793.09;5027657;28;20076;-80
2021/09/05 06:58:36;;;;;;;31.75;17.02;;;;;;;17.43;73.25;100786.50;5022246;28;19936;-80
2021/09/05 07:01:03;;;;;;;25.27;16.15;;;;;;;17.59;73.09;100791.63;5029484;28;20165;-80
2021/09/05 07:03:30;;;;;;;27.35;16.60;;;;;;;17.78;72.57;100794.78;5036528;28;20038;-79
2021/09/05 07:05:57;;;;;;;22.95;15.82;;;;;;;17.95;71.46;100781.97;5036827;28;20037;-79
2021/09/05 07:08:24;;;;;;;26.23;16.25;;;;;;;18.14;70.79;100787.75;5034182;28;20038;-86
2021/09/05 07:10:50;;;;;;;25.38;16.83;;;;;;;18.26;69.70;100784.16;5012068;28;20778;-84
2021/09/05 07:13:18;;;;;;;23.17;15.65;;;;;;;18.32;69.61;100790.91;5021994;28;20486;-85
2021/09/05 07:15:45;;;;;;;23.75;16.33;;;;;;;18.41;69.58;100783.06;5003246;28;20062;-84
2021/09/05 07:18:22;;;;;;;26.48;15.48;;;;;;;18.54;68.72;100796.44;5019878;28;20084;-83
2021/09/05 07:20:49;;;;;;;;;;;;;;;18.62;68.80;100798.56;5018999;28;20057;-84
2021/09/05 07:23:17;;;;;;;24.83;16.05;;;;;;;18.64;68.21;100802.84;5015103;28;19922;-85
2021/09/05 07:25:46;;;;;;;24.75;15.13;;;;;;;18.62;67.95;100802.09;4997067;28;20041;-82
2021/09/05 07:28:13;;;;;;;24.50;16.20;;;;;;;18.60;67.92;100805.84;5008170;28;20060;-82
2021/09/05 07:30:42;;;;;;;21.43;15.50;;;;;;;18.55;68.03;100809.72;5014307;28;20046;-83
2021/09/05 07:33:09;;;;;;;21.27;15.18;;;;;;;18.62;67.90;100823.56;5010818;28;20125;-82
2021/09/05 07:35:36;;;;;;;21.98;14.18;;;;;;;18.69;68.32;100815.94;5012655;28;20153;-86
2021/09/05 07:38:04;;;;;;;22.70;15.38;;;;;;;18.80;67.49;100819.53;5012323;28;20077;-84
2021/09/05 07:40:30;;;;;;;22.55;15.15;;;;;;;18.92;66.70;100823.97;5012849;28;20056;-85
2021/09/05 07:42:57;;;;;;;25.45;15.52;;;;;;;18.96;66.04;100816.53;5018056;28;20042;-82
2021/09/05 07:45:23;;;;;;;20.77;14.35;;;;;;;18.87;67.04;100822.63;5023565;28;20062;-82
2021/09/05 07:47:50;;;;;;;20.70;15.20;;;;;;;18.92;66.53;100823.09;5019265;28;20046;-83
2021/09/05 07:50:17;;;;;;;22.23;14.60;;;;;;;18.90;66.93;100825.03;5016423;28;20045;-81
2021/09/05 07:52:45;;;;;;;22.75;15.00;;;;;;;19.01;67.09;100824.25;5009976;28;20043;-85
2021/09/05 07:55:12;;;;;;;22.45;14.57;;;;;;;19.18;66.68;100830.06;5000241;28;20068;-83
2021/09/05 07:57:38;;;;;;;20.42;14.55;;;;;;;19.32;65.39;100820.09;5008945;28;20496;-84
2021/09/05 08:00:08;;;;;;;25.23;16.05;;;;;;;19.32;65.08;100830.84;4999173;28;20109;-83
2021/09/05 08:06:15;;;;;;;23.33;14.73;;;;;;;19.49;66.60;100820.56;5017118;28;20501;-82
2021/09/05 08:08:43;;;;;;;21.25;14.30;;;;;;;19.68;66.26;100827.16;5014079;28;20042;-83
2021/09/05 08:11:10;;;;;;;22.42;14.70;;;;;;;19.73;64.68;100828.53;5013527;28;20077;-82
2021/09/05 08:13:36;;;;;;;19.42;14.02;;;;;;;19.82;64.78;100822.44;5002128;28;20053;-82
2021/09/05 08:16:03;;;;;;;23.10;14.25;;;;;;;19.93;64.45;100827.81;5017622;28;20050;-82
2021/09/05 08:18:32;;;;;;;21.65;14.32;;;;;;;19.97;64.07;100836.50;5000235;28;20065;-82
2021/09/05 08:20:59;;;;;;;23.13;14.45;;;;;;;19.98;63.08;100831.97;5014551;28;20465;-82
2021/09/05 08:23:26;;;;;;;19.52;12.60;;;;;;;19.99;63.45;100828.31;5008851;28;20078;-86
2021/09/05 08:25:53;;;;;;;20.85;15.00;;;;;;;20.01;62.49;100839.78;5014537;28;20053;-82
2021/09/05 08:28:19;;;;;;;20.67;14.85;;;;;;;19.94;63.43;100836.75;5005587;28;20061;-83
2021/09/05 08:30:48;;;;;;;20.75;14.40;;;;;;;19.85;62.80;100835.63;5018344;28;20125;-84
2021/09/05 08:33:16;;;;;;;19.48;13.85;;;;;;;19.91;63.39;100843.19;5018941;28;20060;-83
2021/09/05 08:35:46;;;;;;;20.75;13.65;;;;;;;19.95;63.34;100843.81;5016269;28;20462;-85
2021/09/05 08:38:14;;;;;;;22.60;15.15;;;;;;;20.06;62.96;100846.50;5010281;28;20057;-86
2021/09/05 08:40:43;;;;;;;19.73;13.65;;;;;;;20.13;63.31;100846.91;5013941;28;20049;-87
2021/09/05 08:43:13;;;;;;;21.60;14.48;;;;;;;20.20;62.64;100838.19;5016820;28;20059;-85
2021/09/05 08:45:40;;;;;;;19.17;13.23;;;;;;;20.25;63.17;100857.53;5012703;28;20045;-85
2021/09/05 08:48:08;;;;;;;22.63;14.13;;;;;;;20.32;62.75;100847.09;5037595;28;20101;-86
2021/09/05 08:50:37;;;;;;;20.13;14.23;;;;;;;20.30;62.32;100846.41;5031213;28;20046;-86
2021/09/05 08:53:04;;;;;;;19.45;13.88;;;;;;;20.23;63.42;100855.94;5012377;28;20105;-86
2021/09/05 08:55:31;;;;;;;21.40;14.27;;;;;;;20.25;62.75;100851.28;5013691;28;20061;-86
2021/09/05 08:57:58;;;;;;;20.33;14.30;;;;;;;20.24;63.49;100852.25;5016682;28;20050;-86
2021/09/05 09:00:25;;;;;;;19.15;13.65;;;;;;;20.27;63.15;100849.34;5015869;28;20054;-86
2021/09/05 09:02:54;;;;;;;21.60;14.02;;;;;;;20.27;63.54;100852.88;5018744;28;20050;-86
2021/09/05 09:05:41;;;;;;;20.35;13.38;;;;;;;20.30;63.87;100846.41;5015546;28;20061;-87
2021/09/05 09:08:10;;;;;;;19.42;13.75;;;;;;;20.39;64.13;100850.19;5026947;28;20046;-84
2021/09/05 09:10:52;;;;;;;22.08;14.02;;;;;;;20.44;63.78;100848.00;5021012;28;20050;-83
2021/09/05 09:13:26;;;;;;;21.42;13.80;;;;;;;20.46;63.13;100843.38;5015808;28;20054;-83
2021/09/05 09:15:55;;;;;;;19.45;13.63;;;;;;;20.43;63.58;100835.53;5001353;28;20054;-85
2021/09/05 09:18:29;;;;;;;19.55;13.05;;;;;;;20.54;63.53;100849.81;5010392;28;20093;-86
2021/09/05 09:20:58;;;;;;;18.70;13.65;;;;;;;20.63;62.90;100857.13;5030035;28;20113;-87
2021/09/05 09:23:29;;;;;;;19.27;13.32;;;;;;;20.73;62.11;100851.00;5023657;28;20056;-87
2021/09/05 09:26:06;;;;;;;22.10;14.75;;;;;;;20.70;61.42;100851.25;5028706;28;20056;-85
2021/09/05 09:28:35;;;;;;;20.65;13.55;;;;;;;20.70;62.18;100849.41;5022101;28;20455;-87
2021/09/05 09:31:18;;;;;;;17.45;13.02;;;;;;;20.79;62.42;100856.72;5014246;28;20077;-87
2021/09/05 09:33:50;;;;;;;19.40;13.55;;;;;;;20.86;62.11;100851.69;5026078;28;20031;-84
2021/09/05 09:36:19;;;;;;;17.05;12.48;;;;;;;21.01;61.71;100858.50;5034513;28;20061;-80
2021/09/05 09:38:57;;;;;;;17.48;13.23;;;;;;;21.12;61.17;100852.22;5007192;28;20105;-78
2021/09/05 09:41:37;;;;;;;19.27;12.55;;;;;;;21.18;60.93;100857.97;5023877;28;20070;-79
2021/09/05 09:44:07;;;;;;;19.13;12.55;;;;;;;21.26;60.67;100847.41;5023556;28;20117;-81
2021/09/05 09:46:36;;;;;;;20.10;13.57;;;;;;;21.34;60.41;100853.03;5009813;28;20630;-81
2021/09/05 09:49:05;;;;;;;20.02;13.35;;;;;;;21.42;60.64;100854.19;5006057;28;20038;-81
2021/09/05 09:51:32;;;;;;;19.08;13.27;;;;;;;21.45;59.09;100852.09;5014681;28;20118;-81
2021/09/05 09:53:59;;;;;;;18.55;13.00;;;;;;;21.48;59.14;100848.28;5010906;28;20476;-82
2021/09/05 09:56:27;;;;;;;19.75;13.20;;;;;;;21.54;58.51;100847.78;4996764;28;20116;-81
2021/09/05 09:59:00;;;;;;;21.75;13.50;;;;;;;21.64;58.85;100849.53;5020220;28;20045;-81
2021/09/05 10:01:28;;;;;;;17.85;12.90;;;;;;;21.66;59.59;100852.13;5005555;28;20764;-81
2021/09/05 10:04:00;;;;;;;18.38;12.48;;;;;;;21.75;60.26;100848.59;5021155;28;20061;-82
2021/09/05 10:06:31;;;;;;;17.85;12.63;;;;;;;21.86;59.32;100843.16;5015702;28;20474;-81
2021/09/05 10:09:04;;;;;;;15.30;11.57;;;;;;;22.00;59.50;100842.00;5019569;28;20456;-81
2021/09/05 10:11:37;;;;;;;18.05;12.40;;;;;;;22.10;58.75;100842.03;5021226;28;20084;-82
2021/09/05 10:14:04;;;;;;;17.15;12.40;;;;;;;22.21;58.90;100839.22;5022246;28;20077;-81
2021/09/05 10:16:31;;;;;;;17.25;12.70;;;;;;;22.28;58.28;100833.16;5021297;28;20401;-81
2021/09/05 10:19:02;;;;;;;16.52;12.23;;;;;;;22.38;57.99;100830.47;5019080;28;20054;-81
2021/09/05 10:21:30;;;;;;;;;;;;;;;22.49;57.45;100837.63;5021307;28;20860;-81
2021/09/05 10:23:58;;;;;;;18.27;12.65;;;;;;;22.51;56.34;100836.47;5002584;28;20316;-81
2021/09/05 10:26:26;;;;;;;16.55;11.85;;;;;;;22.60;56.72;100834.81;5000230;28;20050;-80
2021/09/05 10:28:56;;;;;;;16.40;11.90;;;;;;;22.70;56.36;100841.94;5021297;28;20068;-81
2021/09/05 10:31:28;;;;;;;15.02;11.68;;;;;;;22.74;54.18;100832.56;5014138;28;20045;-81
2021/09/05 10:33:57;;;;;;;16.38;12.52;;;;;;;22.74;54.71;100827.16;5020548;28;20080;-81
2021/09/05 10:36:26;;;;;;;20.40;12.18;;;;;;;22.84;55.17;100829.91;5020260;28;20112;-81
2021/09/05 10:39:05;;;;;;;18.20;11.90;;;;;;;22.87;54.66;100835.03;5013501;28;20050;-80
2021/09/05 10:41:31;;;;;;;18.88;12.88;;;;;;;22.89;54.57;100822.25;5027022;28;20038;-80
2021/09/05 10:44:01;;;;;;;15.02;11.40;;;;;;;22.94;54.66;100827.22;5034418;28;20102;-80
2021/09/05 10:46:30;;;;;;;15.60;11.47;;;;;;;23.07;54.89;100819.69;5033385;28;20092;-80
2021/09/05 10:49:02;;;;;;;18.30;11.63;;;;;;;23.24;54.82;100820.84;5031434;28;20481;-80
2021/09/05 10:51:50;;;;;;;15.07;11.43;;;;;;;23.42;54.65;100817.28;5038944;28;20060;-80
2021/09/05 10:54:25;;;;;;;16.95;11.82;;;;;;;23.56;53.58;100820.53;5037367;28;20093;-81
2021/09/05 10:56:54;;;;;;;17.20;11.98;;;;;;;23.61;53.47;100819.09;5035785;28;20125;-81
2021/09/05 10:59:23;;;;;;;18.10;12.13;;;;;;;23.69;53.51;100810.25;5005685;28;20070;-81
2021/09/05 11:01:49;;;;;;;15.82;11.52;;;;;;;23.74;52.33;100818.81;5028262;28;20038;-81
2021/09/05 11:04:18;;;;;;;16.13;12.40;;;;;;;23.78;52.50;100817.50;5023012;28;20050;-81
2021/09/05 11:06:52;;;;;;;15.57;12.02;;;;;;;23.80;52.30;100812.78;5021078;28;20046;-81
2021/09/05 11:09:19;;;;;;;14.35;10.68;;;;;;;23.82;52.23;100813.50;5019247;28;20457;-81
2021/09/05 11:12:10;;;;;;;13.02;10.20;;;;;;;23.93;52.03;100810.59;5024462;28;20470;-81
2021/09/05 11:14:40;;;;;;;15.93;11.68;;;;;;;24.06;51.38;100816.56;5004276;28;20188;-81
2021/09/05 11:17:07;;;;;;;15.52;10.93;;;;;;;24.15;51.70;100814.81;5014799;28;20492;-81